createdAt,value
2023-02-24T00:01:19.966Z,57.10
2023-02-24T00:03:46.726Z,57.90
2023-02-24T00:06:13.148Z,54.10
2023-02-24T00:08:40.094Z,52.00
2023-02-24T00:11:08.537Z,54.40
2023-02-24T00:13:35.301Z,50.20
2023-02-24T00:16:02.984Z,54.10
2023-02-24T00:18:31.510Z,54.30
2023-02-24T00:21:04.974Z,52.30
2023-02-24T00:23:31.388Z,50.10
2023-02-24T00:25:59.330Z,46.20
2023-02-24T00:28:27.664Z,50.70
2023-02-24T00:30:55.274Z,46.60
2023-02-24T00:33:23.776Z,49.80
2023-02-24T00:35:50.789Z,52.30
2023-02-24T00:38:17.215Z,50.80
2023-02-24T00:40:47.333Z,52.30
2023-02-24T00:43:13.668Z,50.20
2023-02-24T00:45:40.098Z,51.00
2023-02-24T00:48:09.975Z,45.90
2023-02-24T00:50:38.406Z,49.30
2023-02-24T00:53:05.421Z,46.50
2023-02-24T00:55:35.667Z,47.90
2023-02-24T00:58:06.602Z,47.50
2023-02-24T01:00:36.101Z,49.00
2023-02-24T01:03:02.928Z,45.70
2023-02-24T01:05:30.354Z,46.10
2023-02-24T01:07:56.753Z,48.70
2023-02-24T01:10:23.173Z,53.20
2023-02-24T01:12:49.740Z,47.30
2023-02-24T01:15:17.672Z,53.90
2023-02-24T01:17:44.643Z,47.70
2023-02-24T01:20:18.398Z,47.90
2023-02-24T01:22:49.698Z,44.00
2023-02-24T01:25:17.184Z,48.80
2023-02-24T01:27:43.511Z,41.90
2023-02-24T01:30:15.038Z,42.20
2023-02-24T01:32:46.162Z,43.30
2023-02-24T01:35:13.860Z,39.60
2023-02-24T01:37:40.864Z,41.70
2023-02-24T01:40:11.295Z,41.00
2023-02-24T01:42:40.942Z,38.30
2023-02-24T01:45:18.502Z,39.80
2023-02-24T01:47:46.629Z,37.60
2023-02-24T01:50:15.364Z,40.60
2023-02-24T01:52:44.656Z,34.30
2023-02-24T01:55:13.928Z,34.10
2023-02-24T01:57:40.752Z,37.00
2023-02-24T02:00:30.342Z,30.90
2023-02-24T02:02:59.967Z,33.20
2023-02-24T02:05:26.531Z,29.20
2023-02-24T02:07:53.257Z,30.60
2023-02-24T02:10:19.808Z,24.20
2023-02-24T02:12:46.266Z,27.70
2023-02-24T02:15:13.820Z,27.40
2023-02-24T02:17:58.940Z,27.70
2023-02-24T02:20:28.392Z,28.40
2023-02-24T02:23:01.461Z,28.30
2023-02-24T02:25:27.814Z,25.80
2023-02-24T02:28:09.587Z,25.90
2023-02-24T02:30:44.119Z,25.00
2023-02-24T02:33:29.830Z,26.30
2023-02-24T02:35:59.911Z,26.90
2023-02-24T02:38:30.768Z,24.90
2023-02-24T02:41:08.758Z,25.80
2023-02-24T02:43:45.843Z,27.30
2023-02-24T02:46:15.024Z,25.80
2023-02-24T02:48:56.624Z,28.00
2023-02-24T02:51:32.720Z,28.30
2023-02-24T02:54:05.315Z,29.10
2023-02-24T02:56:35.990Z,26.70
2023-02-24T02:59:04.703Z,35.30
2023-02-24T03:01:33.160Z,50.60
2023-02-24T03:04:01.585Z,24.80
2023-02-24T03:06:48.239Z,26.30
2023-02-24T03:09:20.050Z,27.70
2023-02-24T03:11:53.158Z,26.80
2023-02-24T03:14:23.715Z,23.10
2023-02-24T03:16:52.326Z,23.70
2023-02-24T03:19:21.866Z,24.10
2023-02-24T03:22:08.528Z,21.20
2023-02-24T03:24:38.337Z,23.90
2023-02-24T03:27:12.444Z,21.40
2023-02-24T03:30:12.359Z,21.80
2023-02-24T03:32:55.260Z,21.40
2023-02-24T03:35:26.999Z,21.20
2023-02-24T03:37:55.316Z,17.20
2023-02-24T03:40:22.641Z,25.30
2023-02-24T03:42:51.671Z,22.70
2023-02-24T03:45:18.929Z,23.70
2023-02-24T03:47:46.078Z,20.60
2023-02-24T03:50:14.159Z,22.80
2023-02-24T03:53:03.878Z,21.10
2023-02-24T03:55:50.748Z,26.60
2023-02-24T03:58:38.400Z,27.60
2023-02-24T04:01:14.136Z,24.40
2023-02-24T04:03:56.989Z,24.50
2023-02-24T04:06:36.211Z,21.40
2023-02-24T04:09:25.696Z,23.80
2023-02-24T04:11:54.882Z,21.00
2023-02-24T04:14:34.153Z,23.80
2023-02-24T04:17:07.231Z,24.70
2023-02-24T04:19:37.841Z,25.60
2023-02-24T04:22:09.868Z,24.70
2023-02-24T04:24:37.101Z,26.10
2023-02-24T04:27:05.748Z,31.30
2023-02-24T04:29:37.221Z,32.10
2023-02-24T04:32:08.071Z,23.80
2023-02-24T04:34:35.369Z,26.10
2023-02-24T04:37:01.762Z,25.50
2023-02-24T04:39:30.173Z,32.00
2023-02-24T04:41:57.112Z,27.40
2023-02-24T04:47:34.611Z,26.20
2023-02-24T04:50:05.909Z,27.70
2023-02-24T04:52:34.247Z,23.50
2023-02-24T04:55:10.166Z,27.60
2023-02-24T04:57:38.370Z,28.10
2023-02-24T05:00:20.571Z,29.90
2023-02-24T05:02:51.687Z,26.60
2023-02-24T05:05:27.229Z,25.30
2023-02-24T05:07:57.717Z,26.80
2023-02-24T05:10:28.312Z,28.90
2023-02-24T05:13:02.212Z,28.00
2023-02-24T05:15:33.761Z,27.50
2023-02-24T05:18:08.666Z,30.50
2023-02-24T05:21:01.637Z,29.30
2023-02-24T05:23:34.315Z,30.00
2023-02-24T05:26:04.146Z,29.50
2023-02-24T05:28:31.994Z,30.40
2023-02-24T05:31:06.510Z,31.80
2023-02-24T05:33:35.370Z,33.40
2023-02-24T05:36:08.813Z,31.90
2023-02-24T05:38:38.520Z,31.80
2023-02-24T05:41:17.085Z,30.30
2023-02-24T05:43:53.258Z,33.10
2023-02-24T05:46:28.335Z,38.40
2023-02-24T05:48:57.138Z,34.90
2023-02-24T05:51:25.536Z,34.60
2023-02-24T05:53:56.803Z,31.80
2023-02-24T05:56:24.537Z,33.70
2023-02-24T05:59:02.321Z,35.40
2023-02-24T06:01:31.368Z,31.50
2023-02-24T06:04:06.126Z,32.90
2023-02-24T06:06:41.634Z,31.20
2023-02-24T06:09:12.748Z,32.40
2023-02-24T06:11:41.317Z,27.20
2023-02-24T06:14:09.841Z,31.50
2023-02-24T06:16:40.109Z,27.40
2023-02-24T06:19:08.739Z,30.70
2023-02-24T06:21:37.443Z,26.90
2023-02-24T06:24:05.578Z,23.80
2023-02-24T06:26:36.894Z,32.40
2023-02-24T06:29:05.642Z,28.50
2023-02-24T06:31:33.450Z,29.20
2023-02-24T06:34:01.226Z,25.30
2023-02-24T06:36:28.954Z,29.80
2023-02-24T06:38:56.892Z,25.00
2023-02-24T06:41:29.606Z,27.10
2023-02-24T06:43:57.540Z,26.70
2023-02-24T06:46:25.584Z,27.90
2023-02-24T06:48:53.493Z,24.50
2023-02-24T06:51:21.743Z,29.20
2023-02-24T06:53:50.777Z,27.20
2023-02-24T06:56:19.977Z,28.40
2023-02-24T06:58:51.036Z,23.70
2023-02-24T07:01:20.731Z,27.50
2023-02-24T07:04:07.672Z,25.20
2023-02-24T07:06:38.343Z,23.00
2023-02-24T07:09:07.567Z,26.40
2023-02-24T07:11:35.807Z,25.00
2023-02-24T07:14:05.857Z,25.50
2023-02-24T07:16:35.222Z,18.60
2023-02-24T07:19:05.078Z,13.20
2023-02-24T07:21:43.624Z,9.80
2023-02-24T07:24:13.591Z,11.80
2023-02-24T07:26:41.802Z,6.80
2023-02-24T07:29:11.532Z,7.60
2023-02-24T07:31:39.981Z,8.00
2023-02-24T07:34:08.722Z,7.00
2023-02-24T07:36:49.372Z,7.10
2023-02-24T07:39:19.028Z,9.20
2023-02-24T07:41:49.801Z,7.70
2023-02-24T07:44:19.310Z,9.90
2023-02-24T07:46:49.316Z,6.90
2023-02-24T07:49:19.932Z,7.80
2023-02-24T07:51:53.233Z,6.60
2023-02-24T07:54:21.808Z,7.60
2023-02-24T07:56:57.023Z,7.10
2023-02-24T07:59:37.155Z,9.70
2023-02-24T08:02:07.964Z,7.20
2023-02-24T08:04:39.815Z,9.30
2023-02-24T08:07:14.537Z,9.10
2023-02-24T08:09:45.601Z,8.80
2023-02-24T08:12:18.367Z,11.20
2023-02-24T08:14:51.348Z,12.40
2023-02-24T08:17:20.673Z,13.00
2023-02-24T08:19:50.616Z,10.10
2023-02-24T08:22:24.241Z,11.00
2023-02-24T08:24:53.824Z,12.20
2023-02-24T08:27:25.742Z,14.80
2023-02-24T08:30:01.745Z,15.20
2023-02-24T08:32:34.430Z,11.90
2023-02-24T08:35:14.829Z,12.50
2023-02-24T08:37:47.180Z,15.10
2023-02-24T08:40:32.395Z,11.40
2023-02-24T08:43:30.901Z,10.50
2023-02-24T08:46:06.045Z,16.80
2023-02-24T08:48:39.162Z,12.90
2023-02-24T08:51:12.325Z,14.60
2023-02-24T08:53:40.756Z,13.60
2023-02-24T08:56:11.906Z,13.90
2023-02-24T08:58:47.699Z,10.50
2023-02-24T09:01:25.733Z,8.20
2023-02-24T09:03:56.653Z,12.10
2023-02-24T09:06:47.474Z,14.20
2023-02-24T09:09:21.622Z,18.10
2023-02-24T09:11:57.305Z,8.40
2023-02-24T09:14:29.703Z,16.20
2023-02-24T09:17:11.816Z,9.30
2023-02-24T09:19:47.143Z,9.20
2023-02-24T09:22:33.259Z,17.90
2023-02-24T09:25:24.864Z,9.20
2023-02-24T09:28:08.596Z,10.20
2023-02-24T09:30:51.365Z,13.20
2023-02-24T09:33:22.222Z,16.70
2023-02-24T09:35:51.662Z,12.80
2023-02-24T09:38:27.210Z,13.60
2023-02-24T09:40:58.577Z,12.20
2023-02-24T09:43:30.519Z,16.10
2023-02-24T09:46:15.166Z,11.10
2023-02-24T09:48:48.430Z,9.80
2023-02-24T09:51:23.483Z,11.00
2023-02-24T09:53:53.964Z,10.00
2023-02-24T09:56:25.166Z,11.30
2023-02-24T09:58:58.638Z,14.90
2023-02-24T10:01:45.608Z,15.80
2023-02-24T10:04:27.964Z,10.10
2023-02-24T10:07:07.349Z,8.90
2023-02-24T10:09:38.400Z,9.50
2023-02-24T10:12:21.756Z,15.60
2023-02-24T10:15:16.400Z,11.20
2023-02-24T10:17:58.781Z,16.50
2023-02-24T10:20:40.209Z,14.50
2023-02-24T10:23:30.007Z,8.50
2023-02-24T10:26:07.262Z,7.80
2023-02-24T10:28:38.114Z,12.30
2023-02-24T10:31:26.738Z,10.00
2023-02-24T10:34:06.867Z,11.20
2023-02-24T10:36:36.839Z,11.60
2023-02-24T10:39:43.813Z,6.80
2023-02-24T10:42:24.523Z,9.10
2023-02-24T10:45:02.460Z,9.80
2023-02-24T10:47:59.001Z,7.60
2023-02-24T10:50:37.433Z,9.40
2023-02-24T10:53:28.788Z,12.30
2023-02-24T10:56:42.417Z,8.00
2023-02-24T10:59:33.180Z,10.20
2023-02-24T11:02:29.921Z,10.70
2023-02-24T11:05:25.548Z,8.70
2023-02-24T11:08:16.025Z,9.60
2023-02-24T11:11:12.887Z,10.90
2023-02-24T11:14:08.304Z,8.80
2023-02-24T11:17:09.667Z,8.00
2023-02-24T11:19:57.226Z,14.70
2023-02-24T11:22:33.307Z,13.60
2023-02-24T11:25:23.749Z,14.10
2023-02-24T11:27:53.624Z,14.60
2023-02-24T11:30:46.121Z,15.80
2023-02-24T11:33:30.768Z,12.20
2023-02-24T11:36:03.132Z,13.00
2023-02-24T11:38:46.006Z,11.30
2023-02-24T11:41:33.391Z,10.00
2023-02-24T11:44:04.418Z,11.20
2023-02-24T11:46:37.059Z,8.20
2023-02-24T11:49:09.583Z,5.00
2023-02-24T11:51:38.666Z,9.80
2023-02-24T11:54:11.510Z,7.30
2023-02-24T11:56:45.441Z,7.30
2023-02-24T11:59:21.438Z,7.70
2023-02-24T12:02:08.809Z,7.40
2023-02-24T12:04:41.329Z,7.60
2023-02-24T12:07:22.367Z,8.20
2023-02-24T12:10:00.328Z,7.30
2023-02-24T12:12:44.548Z,9.60
2023-02-24T12:15:34.554Z,5.80
2023-02-24T12:18:21.479Z,9.60
2023-02-24T12:20:52.924Z,5.70
2023-02-24T12:23:34.098Z,3.10
2023-02-24T12:26:16.172Z,6.20
2023-02-24T12:28:49.133Z,8.70
2023-02-24T12:31:37.988Z,8.60
2023-02-24T12:34:18.817Z,8.20
2023-02-24T12:37:08.606Z,7.20
2023-02-24T12:39:48.905Z,6.30
2023-02-24T12:42:34.970Z,7.10
2023-02-24T12:45:12.286Z,6.40
2023-02-24T12:47:59.226Z,9.20
2023-02-24T12:50:31.221Z,12.90
2023-02-24T12:53:06.688Z,5.40
2023-02-24T12:55:56.163Z,6.10
2023-02-24T12:58:44.794Z,14.20
2023-02-24T13:01:25.440Z,7.30
2023-02-24T13:03:53.421Z,8.30
2023-02-24T13:06:27.462Z,5.20
2023-02-24T13:09:01.528Z,5.40
2023-02-24T13:11:42.029Z,7.70
2023-02-24T13:14:19.312Z,7.50
2023-02-24T13:16:47.474Z,6.70
2023-02-24T13:19:21.544Z,6.40
2023-02-24T13:21:56.930Z,8.90
2023-02-24T13:24:26.880Z,9.60
2023-02-24T13:27:15.179Z,7.90
2023-02-24T13:30:01.257Z,4.80
2023-02-24T13:32:29.558Z,7.10
2023-02-24T13:35:05.415Z,6.60
2023-02-24T13:37:37.480Z,6.20
2023-02-24T13:40:16.682Z,6.20
2023-02-24T13:42:59.529Z,7.20
2023-02-24T13:45:35.348Z,4.70
2023-02-24T13:48:15.800Z,7.60
2023-02-24T13:50:43.764Z,5.50
2023-02-24T13:53:17.461Z,8.90
2023-02-24T13:56:05.208Z,8.90
2023-02-24T14:00:41.756Z,6.50
2023-02-24T14:03:17.783Z,11.90
2023-02-24T14:05:46.112Z,5.20
2023-02-24T14:08:40.482Z,9.60
2023-02-24T14:11:10.620Z,9.50
2023-02-24T14:13:40.869Z,13.00
2023-02-24T14:16:11.902Z,7.70
2023-02-24T14:18:42.127Z,8.30
2023-02-24T14:21:22.436Z,7.70
2023-02-24T14:24:02.095Z,8.80
2023-02-24T14:26:33.664Z,7.80
2023-02-24T14:29:02.162Z,7.20
2023-02-24T14:31:30.461Z,10.20
2023-02-24T14:34:04.212Z,6.40
2023-02-24T14:36:34.672Z,11.10
2023-02-24T14:39:02.897Z,6.50
2023-02-24T14:41:31.418Z,11.60
2023-02-24T14:44:05.269Z,8.50
2023-02-24T14:46:34.022Z,7.90
2023-02-24T14:49:02.780Z,6.40
2023-02-24T14:51:36.485Z,12.50
2023-02-24T14:54:10.857Z,10.20
2023-02-24T14:56:39.063Z,8.60
2023-02-24T14:59:29.734Z,7.50
2023-02-24T15:01:58.471Z,6.10
2023-02-24T15:04:44.207Z,9.00
2023-02-24T15:07:21.718Z,7.00
2023-02-24T15:09:52.313Z,9.80
2023-02-24T15:12:23.800Z,6.80
2023-02-24T15:15:19.242Z,8.00
2023-02-24T15:17:49.026Z,5.00
2023-02-24T15:20:33.398Z,8.60
2023-02-24T15:23:02.879Z,6.30
2023-02-24T15:25:43.629Z,8.30
2023-02-24T15:28:32.906Z,5.80
2023-02-24T15:31:05.616Z,7.30
2023-02-24T15:33:58.715Z,7.20
2023-02-24T15:36:31.594Z,8.10
2023-02-24T15:39:08.062Z,8.50
2023-02-24T15:41:59.422Z,9.70
2023-02-24T15:44:29.428Z,9.80
2023-02-24T15:46:58.988Z,10.70
2023-02-24T15:49:27.855Z,9.20
2023-02-24T15:51:59.916Z,8.00
2023-02-24T15:54:30.859Z,8.10
2023-02-24T15:57:00.685Z,10.30
2023-02-24T15:59:29.801Z,7.10
2023-02-24T16:02:00.713Z,8.70
2023-02-24T16:04:29.397Z,9.60
2023-02-24T16:06:57.920Z,9.40
2023-02-24T16:09:37.196Z,7.40
2023-02-24T16:12:16.417Z,8.30
2023-02-24T16:14:54.523Z,10.10
2023-02-24T16:17:39.913Z,9.30
2023-02-24T16:20:12.798Z,7.70
2023-02-24T16:22:44.286Z,10.30
2023-02-24T16:25:16.445Z,11.50
2023-02-24T16:27:44.772Z,11.50
2023-02-24T16:30:18.659Z,14.50
2023-02-24T16:32:47.976Z,10.30
2023-02-24T16:35:17.601Z,11.20
2023-02-24T16:37:47.455Z,8.90
2023-02-24T16:40:22.272Z,8.40
2023-02-24T16:42:51.853Z,11.90
2023-02-24T16:45:20.982Z,8.10
2023-02-24T16:47:51.759Z,12.10
2023-02-24T16:50:21.942Z,10.30
2023-02-24T16:52:49.897Z,7.70
2023-02-24T16:55:18.523Z,9.60
2023-02-24T16:57:46.519Z,11.90
2023-02-24T17:06:25.632Z,9.00
2023-02-24T17:08:56.164Z,9.70
2023-02-24T17:11:27.230Z,10.10
2023-02-24T17:13:55.174Z,10.00
2023-02-24T17:22:09.834Z,11.60
2023-02-24T17:24:36.325Z,13.50
2023-02-24T17:27:03.663Z,14.20
2023-02-24T17:29:30.268Z,10.00
2023-02-24T17:31:57.253Z,11.00
2023-02-24T17:34:23.918Z,11.20
2023-02-24T17:36:50.427Z,9.10
2023-02-24T17:39:17.063Z,12.90
2023-02-24T17:41:43.798Z,14.90
2023-02-24T17:44:10.366Z,12.30
2023-02-24T17:46:37.344Z,11.50
2023-02-24T17:49:07.086Z,11.20
2023-02-24T17:51:33.851Z,9.90
2023-02-24T17:54:00.540Z,14.90
2023-02-24T17:56:27.019Z,8.70
2023-02-24T17:58:58.449Z,9.20
2023-02-24T18:01:27.331Z,11.50
2023-02-24T18:03:56.759Z,17.10
2023-02-24T18:06:23.875Z,13.00
2023-02-24T18:08:50.653Z,13.60
2023-02-24T18:11:18.303Z,9.30
2023-02-24T18:13:45.053Z,13.20
2023-02-24T18:16:13.137Z,9.40
2023-02-24T18:18:40.244Z,8.90
2023-02-24T18:21:08.399Z,9.20
2023-02-24T18:23:36.155Z,11.70
2023-02-24T18:26:03.579Z,10.10
2023-02-24T18:28:30.578Z,10.30
2023-02-24T18:30:57.448Z,13.60
2023-02-24T18:33:25.716Z,14.10
2023-02-24T18:35:57.603Z,11.00
2023-02-24T18:38:24.728Z,10.80
2023-02-24T18:40:58.394Z,10.30
2023-02-24T18:43:25.312Z,11.40
2023-02-24T18:45:56.437Z,12.50
2023-02-24T18:48:23.789Z,9.60
2023-02-24T18:50:51.476Z,29.60
2023-02-24T18:53:19.417Z,13.60
2023-02-24T18:55:46.277Z,12.50
2023-02-24T18:58:12.807Z,11.80
2023-02-24T19:00:39.627Z,10.80
2023-02-24T19:03:06.739Z,12.40
2023-02-24T19:05:38.590Z,24.50
2023-02-24T19:08:07.826Z,14.40
2023-02-24T19:10:36.586Z,16.00
2023-02-24T19:13:03.594Z,11.10
2023-02-24T19:15:30.193Z,9.50
2023-02-24T19:17:56.632Z,11.10
2023-02-24T19:20:23.354Z,11.40
2023-02-24T19:22:51.598Z,10.20
2023-02-24T19:25:18.657Z,9.30
2023-02-24T19:27:47.352Z,8.50
2023-02-24T19:30:14.449Z,8.60
2023-02-24T19:32:41.569Z,8.90
2023-02-24T19:35:08.405Z,8.40
2023-02-24T19:37:35.324Z,11.10
2023-02-24T19:40:06.226Z,10.70
2023-02-24T19:42:35.099Z,7.40
2023-02-24T19:45:02.314Z,9.60
2023-02-24T19:47:34.458Z,8.20
2023-02-24T19:50:05.718Z,7.30
2023-02-24T19:52:39.860Z,7.80
2023-02-24T19:55:15.303Z,6.80
2023-02-24T19:57:42.737Z,11.00
2023-02-24T20:00:12.788Z,10.30
2023-02-24T20:02:39.626Z,10.80
2023-02-24T20:05:07.977Z,9.80
2023-02-24T20:10:34.300Z,8.10
2023-02-24T20:13:01.080Z,11.20
2023-02-24T20:15:27.689Z,9.40
2023-02-24T20:17:54.312Z,13.40
2023-02-24T20:20:20.903Z,7.00
2023-02-24T20:22:47.607Z,10.00
2023-02-24T20:25:15.984Z,7.00
2023-02-24T20:27:43.495Z,9.90
2023-02-24T20:30:10.712Z,8.00
2023-02-24T20:32:37.870Z,8.70
2023-02-24T20:35:04.826Z,7.60
2023-02-24T20:37:31.696Z,7.50
2023-02-24T20:39:58.438Z,7.70
2023-02-24T20:42:24.926Z,5.50
2023-02-24T20:44:52.421Z,10.00
2023-02-24T20:47:20.281Z,6.90
2023-02-24T20:49:47.154Z,7.70
2023-02-24T20:52:13.599Z,8.40
2023-02-24T20:54:40.133Z,5.80
2023-02-24T20:57:08.353Z,6.00
2023-02-24T20:59:39.452Z,6.30
2023-02-24T21:02:05.864Z,8.80
2023-02-24T21:04:32.405Z,6.50
2023-02-24T21:06:59.076Z,7.20
2023-02-24T21:09:25.969Z,5.50
2023-02-24T21:11:52.698Z,7.30
2023-02-24T21:14:19.716Z,7.80
2023-02-24T21:16:46.488Z,7.40
2023-02-24T21:19:13.274Z,9.50
2023-02-24T21:21:39.760Z,5.70
2023-02-24T21:24:06.548Z,7.20
2023-02-24T21:26:32.958Z,4.90
2023-02-24T21:28:59.462Z,5.40
2023-02-24T21:31:26.249Z,5.10
2023-02-24T21:33:53.102Z,3.90
2023-02-24T21:36:20.480Z,4.00
2023-02-24T21:38:47.162Z,5.00
2023-02-24T21:41:14.340Z,4.40
2023-02-24T21:43:41.983Z,5.90
2023-02-24T21:46:15.293Z,4.80
2023-02-24T21:48:42.872Z,5.60
2023-02-24T21:51:11.367Z,4.70
2023-02-24T21:53:38.683Z,4.20
2023-02-24T21:56:10.249Z,5.50
2023-02-24T21:58:38.578Z,6.60
2023-02-24T22:01:13.569Z,5.50
2023-02-24T22:04:18.464Z,4.40
2023-02-24T22:06:45.195Z,6.30
2023-02-24T22:09:13.917Z,6.30
2023-02-24T22:11:40.626Z,5.90
2023-02-24T22:14:08.240Z,5.50
2023-02-24T22:16:34.819Z,6.10
2023-02-24T22:19:01.221Z,5.30
2023-02-24T22:21:28.663Z,6.80
2023-02-24T22:23:58.808Z,6.70
2023-02-24T22:26:26.211Z,6.60
2023-02-24T22:28:55.779Z,7.80
2023-02-24T22:31:24.613Z,6.70
2023-02-24T22:33:51.408Z,9.40
2023-02-24T22:36:21.738Z,7.90
2023-02-24T22:38:50.100Z,7.40
2023-02-24T22:41:18.453Z,7.20
2023-02-24T22:43:45.601Z,9.20
2023-02-24T22:46:13.679Z,6.40
2023-02-24T22:48:40.722Z,6.70
2023-02-24T22:51:08.261Z,8.10
2023-02-24T22:53:35.631Z,9.30
2023-02-24T22:56:02.221Z,9.80
2023-02-24T22:58:28.766Z,10.70
2023-02-24T23:00:55.278Z,8.60
2023-02-24T23:03:23.534Z,11.40
2023-02-24T23:05:54.254Z,10.30
2023-02-24T23:08:20.947Z,7.80
2023-02-24T23:10:47.299Z,10.30
2023-02-24T23:13:13.698Z,10.70
2023-02-24T23:15:40.084Z,10.70
2023-02-24T23:18:06.817Z,10.70
2023-02-24T23:20:33.278Z,11.30
2023-02-24T23:23:01.142Z,11.50
2023-02-24T23:25:27.751Z,10.50
2023-02-24T23:27:54.250Z,10.90
2023-02-24T23:30:20.731Z,11.40
2023-02-24T23:32:47.624Z,11.20
2023-02-24T23:35:14.725Z,11.90
2023-02-24T23:37:41.380Z,11.80
2023-02-24T23:40:14.157Z,11.10
2023-02-24T23:42:43.547Z,12.80
2023-02-24T23:45:10.095Z,12.70
2023-02-24T23:47:36.593Z,9.60
2023-02-24T23:50:03.376Z,12.50
2023-02-24T23:52:29.871Z,12.30
2023-02-24T23:54:56.375Z,10.70
2023-02-24T23:57:22.770Z,11.10
2023-02-24T23:59:49.180Z,12.80
